createdAt,value
2018-01-30T00:01:54.171Z,24.87
2018-01-30T00:04:21.768Z,18.40
2018-01-30T00:06:49.678Z,21.23
2018-01-30T00:09:17.259Z,19.37
2018-01-30T00:11:44.798Z,15.57
2018-01-30T00:14:12.363Z,17.90
2018-01-30T00:16:39.936Z,22.23
2018-01-30T00:19:07.491Z,29.13
2018-01-30T00:21:35.040Z,27.23
2018-01-30T00:24:02.672Z,18.53
2018-01-30T00:26:30.277Z,33.17
2018-01-30T00:28:57.837Z,21.70
2018-01-30T00:33:59.154Z,18.33
2018-01-30T00:36:26.769Z,19.47
2018-01-30T00:38:54.307Z,27.93
2018-01-30T00:41:21.853Z,17.57
2018-01-30T00:43:49.425Z,18.63
2018-01-30T00:46:16.939Z,25.90
2018-01-30T00:48:44.488Z,35.53
2018-01-30T00:51:12.432Z,22.37
2018-01-30T00:53:40.020Z,35.97
2018-01-30T00:56:07.581Z,24.97
2018-01-30T00:58:35.135Z,33.53
2018-01-30T01:01:02.737Z,25.70
2018-01-30T01:03:30.288Z,26.43
2018-01-30T01:05:57.837Z,29.37
2018-01-30T01:08:25.405Z,27.37
2018-01-30T01:10:52.923Z,20.30
2018-01-30T01:13:20.807Z,20.63
2018-01-30T01:15:48.378Z,20.10
2018-01-30T01:18:15.924Z,15.03
2018-01-30T01:20:43.515Z,39.67
2018-01-30T01:23:11.100Z,15.13
2018-01-30T01:25:38.671Z,29.10
2018-01-30T01:28:06.220Z,24.07
2018-01-30T01:30:33.750Z,21.70
2018-01-30T01:33:01.362Z,21.63
2018-01-30T01:35:29.034Z,28.50
2018-01-30T01:37:56.575Z,25.67
2018-01-30T01:40:24.171Z,14.80
2018-01-30T01:42:51.752Z,28.57
2018-01-30T01:45:19.259Z,24.47
2018-01-30T01:47:47.115Z,25.33
2018-01-30T01:50:14.657Z,25.77
2018-01-30T01:52:42.225Z,45.63
2018-01-30T01:55:09.864Z,26.73
2018-01-30T01:57:37.482Z,24.07
2018-01-30T02:00:05.028Z,28.97
2018-01-30T02:02:33.559Z,37.53
2018-01-30T02:05:01.143Z,27.77
2018-01-30T02:07:28.679Z,13.13
2018-01-30T02:09:56.190Z,26.93
2018-01-30T02:12:23.737Z,13.67
2018-01-30T02:14:51.275Z,21.07
2018-01-30T02:17:19.149Z,26.50
2018-01-30T02:19:46.702Z,26.17
2018-01-30T02:22:14.244Z,31.60
2018-01-30T02:24:41.811Z,37.13
2018-01-30T02:27:09.366Z,25.13
2018-01-30T02:29:36.946Z,19.33
2018-01-30T02:32:04.459Z,17.97
2018-01-30T02:34:32.035Z,14.20
2018-01-30T02:36:59.688Z,23.03
2018-01-30T02:39:27.212Z,12.67
2018-01-30T02:41:54.784Z,12.10
2018-01-30T02:44:22.385Z,17.40
2018-01-30T02:46:49.912Z,26.27
2018-01-30T02:49:17.649Z,34.47
2018-01-30T02:51:45.191Z,24.00
2018-01-30T02:54:12.747Z,17.50
2018-01-30T02:56:40.376Z,25.93
2018-01-30T02:59:07.911Z,12.63
2018-01-30T03:01:35.475Z,20.63
2018-01-30T03:04:03.024Z,23.10
2018-01-30T03:06:30.904Z,13.77
2018-01-30T03:08:58.474Z,24.47
2018-01-30T03:11:26.056Z,16.23
2018-01-30T03:13:53.647Z,22.67
2018-01-30T03:16:21.215Z,24.53
2018-01-30T03:18:48.745Z,21.30
2018-01-30T03:21:16.354Z,29.27
2018-01-30T03:23:43.877Z,16.07
2018-01-30T03:26:11.426Z,31.53
2018-01-30T03:28:39.054Z,18.23
2018-01-30T03:31:06.601Z,28.80
2018-01-30T03:33:34.129Z,29.73
2018-01-30T03:36:01.726Z,23.60
2018-01-30T03:38:29.263Z,21.57
2018-01-30T03:40:56.825Z,21.10
2018-01-30T03:43:24.418Z,25.87
2018-01-30T03:45:51.968Z,25.23
2018-01-30T03:48:19.540Z,23.90
2018-01-30T03:50:47.153Z,27.97
2018-01-30T03:53:14.722Z,20.13
2018-01-30T03:55:42.259Z,14.23
2018-01-30T03:58:09.809Z,25.03
2018-01-30T04:00:37.413Z,17.93
2018-01-30T04:03:05.037Z,18.00
2018-01-30T04:05:32.621Z,37.40
2018-01-30T04:08:00.143Z,28.83
2018-01-30T04:10:27.734Z,16.83
2018-01-30T04:12:55.274Z,19.87
2018-01-30T04:15:22.820Z,30.53
2018-01-30T04:17:50.716Z,21.47
2018-01-30T04:20:18.245Z,25.90
2018-01-30T04:22:45.779Z,18.37
2018-01-30T04:25:13.362Z,26.80
2018-01-30T04:27:40.983Z,29.33
2018-01-30T04:30:08.603Z,20.60
2018-01-30T04:32:36.152Z,18.27
2018-01-30T04:35:03.721Z,21.23
2018-01-30T04:37:31.317Z,34.90
2018-01-30T04:39:58.832Z,31.13
2018-01-30T04:42:26.413Z,37.57
2018-01-30T04:44:53.958Z,11.47
2018-01-30T04:47:21.512Z,18.40
2018-01-30T04:49:49.061Z,31.53
2018-01-30T04:52:16.626Z,17.23
2018-01-30T04:54:44.161Z,28.73
2018-01-30T04:57:11.733Z,20.47
2018-01-30T04:59:39.284Z,22.27
2018-01-30T05:02:06.846Z,28.03
2018-01-30T05:04:34.397Z,43.67
2018-01-30T05:07:01.939Z,28.83
2018-01-30T05:09:29.503Z,23.80
2018-01-30T05:11:57.108Z,17.47
2018-01-30T05:14:24.981Z,33.27
2018-01-30T05:16:52.492Z,49.07
2018-01-30T05:19:20.043Z,16.90
2018-01-30T05:21:47.593Z,25.07
2018-01-30T05:24:15.174Z,18.30
2018-01-30T05:26:42.713Z,43.83
2018-01-30T05:29:10.308Z,26.27
2018-01-30T05:31:37.882Z,42.90
2018-01-30T05:34:05.422Z,29.43
2018-01-30T05:36:32.986Z,33.53
2018-01-30T05:39:00.549Z,30.13
2018-01-30T05:41:28.114Z,35.63
2018-01-30T05:43:55.666Z,31.80
2018-01-30T05:46:23.263Z,32.53
2018-01-30T05:48:50.823Z,30.90
2018-01-30T05:51:18.373Z,32.63
2018-01-30T05:53:45.935Z,34.40
2018-01-30T05:56:13.479Z,41.50
2018-01-30T05:58:41.041Z,34.97
2018-01-30T06:01:08.597Z,38.93
2018-01-30T06:03:36.178Z,50.73
2018-01-30T06:06:03.716Z,32.70
2018-01-30T06:08:31.260Z,33.00
2018-01-30T06:10:58.825Z,37.57
2018-01-30T06:13:26.381Z,35.13
2018-01-30T06:15:53.942Z,48.17
2018-01-30T06:18:21.497Z,34.87
2018-01-30T06:20:49.058Z,39.77
2018-01-30T06:23:16.604Z,45.63
2018-01-30T06:25:44.519Z,44.80
2018-01-30T06:28:12.101Z,38.43
2018-01-30T06:30:39.624Z,45.67
2018-01-30T06:33:07.209Z,35.87
2018-01-30T06:35:34.739Z,39.70
2018-01-30T06:38:02.690Z,46.37
2018-01-30T06:40:30.325Z,43.17
2018-01-30T06:42:57.852Z,50.90
2018-01-30T06:45:25.416Z,48.60
2018-01-30T06:47:53.013Z,31.23
2018-01-30T06:50:20.568Z,52.40
2018-01-30T06:52:48.083Z,51.43
2018-01-30T06:55:15.646Z,58.47
2018-01-30T06:57:43.225Z,44.97
2018-01-30T07:00:10.851Z,46.40
2018-01-30T07:02:38.419Z,50.57
2018-01-30T07:05:05.983Z,57.80
2018-01-30T07:07:33.614Z,61.50
2018-01-30T07:10:01.164Z,54.70
2018-01-30T07:12:28.700Z,69.10
2018-01-30T07:14:56.299Z,60.70
2018-01-30T07:17:23.885Z,53.60
2018-01-30T07:19:51.421Z,52.33
2018-01-30T07:22:19.015Z,62.50
2018-01-30T07:24:46.565Z,65.27
2018-01-30T07:27:14.080Z,64.80
2018-01-30T07:29:41.660Z,64.13
2018-01-30T07:32:09.222Z,54.43
2018-01-30T07:34:36.804Z,56.60
2018-01-30T07:37:04.379Z,57.47
2018-01-30T07:39:31.924Z,57.90
2018-01-30T07:41:59.492Z,59.30
2018-01-30T07:44:27.323Z,61.17
2018-01-30T07:46:55.006Z,54.20
2018-01-30T07:49:22.565Z,60.90
2018-01-30T07:51:50.183Z,41.63
2018-01-30T07:54:17.826Z,36.77
2018-01-30T07:56:45.356Z,43.20
2018-01-30T07:59:12.929Z,46.70
2018-01-30T08:01:40.537Z,45.50
2018-01-30T08:04:08.083Z,58.50
2018-01-30T08:06:35.696Z,55.30
2018-01-30T08:09:03.311Z,54.07
2018-01-30T08:11:30.864Z,59.10
2018-01-30T08:13:58.422Z,47.33
2018-01-30T08:16:25.940Z,56.70
2018-01-30T08:18:53.485Z,47.13
2018-01-30T08:21:21.022Z,52.33
2018-01-30T08:23:48.601Z,47.23
2018-01-30T08:26:16.151Z,53.50
2018-01-30T08:28:43.671Z,41.63
2018-01-30T08:31:11.250Z,43.60
2018-01-30T08:33:38.768Z,41.13
2018-01-30T08:36:06.335Z,40.07
2018-01-30T08:38:34.269Z,42.40
2018-01-30T08:41:01.826Z,38.47
2018-01-30T08:43:29.373Z,35.93
2018-01-30T08:45:57.287Z,43.30
2018-01-30T08:48:24.878Z,40.50
2018-01-30T08:50:52.425Z,41.67
2018-01-30T08:53:20.052Z,39.77
2018-01-30T08:55:47.606Z,34.03
2018-01-30T08:58:15.248Z,36.10
2018-01-30T09:00:42.820Z,39.87
2018-01-30T09:03:10.375Z,41.53
2018-01-30T09:05:37.962Z,34.10
2018-01-30T09:08:05.512Z,73.03
2018-01-30T09:10:33.044Z,35.17
2018-01-30T09:13:00.680Z,32.70
2018-01-30T09:15:28.540Z,36.33
2018-01-30T09:17:56.064Z,37.43
2018-01-30T09:20:23.584Z,34.17
2018-01-30T09:22:51.124Z,51.07
2018-01-30T09:25:18.686Z,38.13
2018-01-30T09:27:46.291Z,40.93
2018-01-30T09:30:13.809Z,26.33
2018-01-30T09:32:41.398Z,32.03
2018-01-30T09:35:08.947Z,31.70
2018-01-30T09:37:36.720Z,42.67
2018-01-30T09:40:04.306Z,20.97
2018-01-30T09:42:31.890Z,31.50
2018-01-30T09:44:59.436Z,25.00
2018-01-30T09:47:26.995Z,37.63
2018-01-30T09:49:54.572Z,42.33
2018-01-30T09:52:22.092Z,23.23
2018-01-30T09:54:49.654Z,37.77
2018-01-30T09:57:17.223Z,28.10
2018-01-30T09:59:44.777Z,31.93
2018-01-30T10:02:12.356Z,26.43
2018-01-30T10:04:39.911Z,27.40
2018-01-30T10:07:07.470Z,25.20
2018-01-30T10:09:35.043Z,34.00
2018-01-30T10:12:02.567Z,43.13
2018-01-30T10:14:30.138Z,40.67
2018-01-30T10:16:57.680Z,47.90
2018-01-30T10:19:25.255Z,40.27
2018-01-30T10:21:52.806Z,40.87
2018-01-30T10:24:20.351Z,29.93
2018-01-30T10:26:47.934Z,38.43
2018-01-30T10:29:15.565Z,40.33
2018-01-30T10:31:43.079Z,44.97
2018-01-30T10:34:10.628Z,33.97
2018-01-30T10:36:38.217Z,31.03
2018-01-30T10:39:05.777Z,29.10
2018-01-30T10:41:33.407Z,28.97
2018-01-30T10:44:01.949Z,38.63
2018-01-30T10:46:29.490Z,31.30
2018-01-30T10:48:57.055Z,28.90
2018-01-30T10:51:24.601Z,33.63
2018-01-30T10:53:52.175Z,33.40
2018-01-30T10:56:19.722Z,40.87
2018-01-30T10:58:47.319Z,27.60
2018-01-30T11:01:14.898Z,35.17
2018-01-30T11:03:42.434Z,41.17
2018-01-30T11:06:10.004Z,38.63
2018-01-30T11:08:37.525Z,40.47
2018-01-30T11:11:05.091Z,37.90
2018-01-30T11:13:32.765Z,36.50
2018-01-30T11:16:00.331Z,39.33
2018-01-30T11:18:27.854Z,31.50
2018-01-30T11:20:55.401Z,30.10
2018-01-30T11:23:23.056Z,35.43
2018-01-30T11:25:50.612Z,41.00
2018-01-30T11:28:18.146Z,34.97
2018-01-30T11:30:45.719Z,49.13
2018-01-30T11:33:13.338Z,39.57
2018-01-30T11:35:41.046Z,38.13
2018-01-30T11:38:08.594Z,23.00
2018-01-30T11:40:36.164Z,45.53
2018-01-30T11:43:03.687Z,28.03
2018-01-30T11:45:31.548Z,28.90
2018-01-30T11:47:59.106Z,31.87
2018-01-30T11:50:26.633Z,22.37
2018-01-30T11:52:54.205Z,27.43
2018-01-30T11:55:21.757Z,28.53
2018-01-30T11:57:49.617Z,22.83
2018-01-30T12:00:17.181Z,23.57
2018-01-30T12:02:44.757Z,40.07
2018-01-30T12:05:12.395Z,27.73
2018-01-30T12:07:39.935Z,25.93
2018-01-30T12:10:07.499Z,22.43
2018-01-30T12:12:35.064Z,22.47
2018-01-30T12:15:02.586Z,19.90
2018-01-30T12:17:30.185Z,22.13
2018-01-30T12:19:57.727Z,21.30
2018-01-30T12:22:25.263Z,23.47
2018-01-30T12:24:52.842Z,23.30
2018-01-30T12:27:20.475Z,28.10
2018-01-30T12:29:48.046Z,23.70
2018-01-30T12:32:15.565Z,25.23
2018-01-30T12:34:43.169Z,24.50
2018-01-30T12:37:10.721Z,32.83
2018-01-30T12:39:38.330Z,26.67
2018-01-30T12:42:05.872Z,20.37
2018-01-30T12:44:33.430Z,19.63
2018-01-30T12:47:01.014Z,17.87
2018-01-30T12:49:28.561Z,21.50
2018-01-30T12:51:56.136Z,20.83
2018-01-30T12:54:23.680Z,28.87
2018-01-30T12:56:51.234Z,20.97
2018-01-30T12:59:19.170Z,16.43
2018-01-30T13:01:46.722Z,14.80
2018-01-30T13:04:14.292Z,16.37
2018-01-30T13:06:41.877Z,19.80
2018-01-30T13:09:09.438Z,18.33
2018-01-30T13:11:36.991Z,21.63
2018-01-30T13:14:04.542Z,15.67
2018-01-30T13:16:32.118Z,20.63
2018-01-30T13:18:59.665Z,16.07
2018-01-30T13:21:27.237Z,17.10
2018-01-30T13:23:54.812Z,29.43
2018-01-30T13:26:22.514Z,22.83
2018-01-30T13:28:50.068Z,9.67
2018-01-30T13:31:17.580Z,13.50
2018-01-30T13:33:45.113Z,17.57
2018-01-30T13:36:12.628Z,17.97
2018-01-30T13:38:40.164Z,14.27
2018-01-30T13:41:07.690Z,20.30
2018-01-30T13:43:36.061Z,13.43
2018-01-30T13:46:03.630Z,14.67
2018-01-30T13:48:31.157Z,20.23
2018-01-30T13:50:58.748Z,16.57
2018-01-30T13:53:26.292Z,10.40
2018-01-30T13:55:53.827Z,17.50
2018-01-30T13:58:21.750Z,8.37
2018-01-30T14:00:49.302Z,16.80
2018-01-30T14:03:16.815Z,10.80
2018-01-30T14:05:44.366Z,12.80
2018-01-30T14:08:11.922Z,13.93
2018-01-30T14:10:39.494Z,16.07
2018-01-30T14:13:07.229Z,19.37
2018-01-30T14:15:34.789Z,10.27
2018-01-30T14:18:02.342Z,10.53
2018-01-30T14:20:29.958Z,9.30
2018-01-30T14:22:57.472Z,16.40
2018-01-30T14:25:25.001Z,9.50
2018-01-30T14:27:52.549Z,17.20
2018-01-30T14:30:20.152Z,18.77
2018-01-30T14:32:48.080Z,14.87
2018-01-30T14:35:16.502Z,18.60
2018-01-30T14:37:44.109Z,18.17
2018-01-30T14:40:11.647Z,19.33
2018-01-30T14:42:39.207Z,13.40
2018-01-30T14:45:06.812Z,9.33
2018-01-30T14:47:34.355Z,16.60
2018-01-30T14:50:01.897Z,13.43
2018-01-30T14:52:29.468Z,8.60
2018-01-30T14:54:57.025Z,11.03
2018-01-30T14:57:24.578Z,16.67
2018-01-30T14:59:52.485Z,15.47
2018-01-30T15:02:20.024Z,21.03
2018-01-30T15:04:47.527Z,9.97
2018-01-30T15:07:15.085Z,10.07
2018-01-30T15:09:42.604Z,11.23
2018-01-30T15:12:10.160Z,11.23
2018-01-30T15:14:37.700Z,19.03
2018-01-30T15:17:05.237Z,7.63
2018-01-30T15:19:33.170Z,16.10
2018-01-30T15:22:00.742Z,35.30
2018-01-30T15:24:28.266Z,12.50
2018-01-30T15:26:55.847Z,22.93
2018-01-30T15:29:23.370Z,17.70
2018-01-30T15:31:50.898Z,16.37
2018-01-30T15:34:18.445Z,19.20
2018-01-30T15:36:45.982Z,20.43
2018-01-30T15:39:13.538Z,14.27
2018-01-30T15:41:41.086Z,16.40
2018-01-30T15:44:08.671Z,15.10
2018-01-30T15:46:36.349Z,15.10
2018-01-30T15:49:03.906Z,21.83
2018-01-30T15:51:31.495Z,19.50
2018-01-30T15:53:59.013Z,18.10
2018-01-30T15:56:26.543Z,18.20
2018-01-30T15:58:54.083Z,24.30
2018-01-30T16:01:22.015Z,15.50
2018-01-30T16:03:49.546Z,21.87
2018-01-30T16:06:17.065Z,27.63
2018-01-30T16:08:44.654Z,18.73
2018-01-30T16:11:12.181Z,10.40
2018-01-30T16:13:39.749Z,17.17
2018-01-30T16:16:07.326Z,15.50
2018-01-30T16:18:34.999Z,23.70
2018-01-30T16:21:02.614Z,15.30
2018-01-30T16:23:30.126Z,24.53
2018-01-30T16:25:57.690Z,234.77
2018-01-30T16:28:25.314Z,24.30
2018-01-30T16:30:52.875Z,32.30
2018-01-30T16:33:20.405Z,27.63
2018-01-30T16:35:47.943Z,19.17
2018-01-30T16:38:15.526Z,16.03
2018-01-30T16:40:43.079Z,17.73
2018-01-30T16:43:10.614Z,33.00
2018-01-30T16:45:38.543Z,40.50
2018-01-30T16:48:06.093Z,78.60
2018-01-30T16:50:33.696Z,22.57
2018-01-30T16:53:01.254Z,22.27
2018-01-30T16:55:28.884Z,17.83
2018-01-30T16:57:56.818Z,19.57
2018-01-30T17:00:24.361Z,15.97
2018-01-30T17:02:51.878Z,14.00
2018-01-30T17:05:19.424Z,18.00
2018-01-30T17:07:46.999Z,30.70
2018-01-30T17:10:14.536Z,21.63
2018-01-30T17:12:42.080Z,25.60
2018-01-30T17:15:09.630Z,23.97
2018-01-30T17:17:37.214Z,36.93
2018-01-30T17:20:04.936Z,20.13
2018-01-30T17:22:32.483Z,35.00
2018-01-30T17:25:00.099Z,24.73
2018-01-30T17:27:27.685Z,32.80
2018-01-30T17:29:55.225Z,36.27
2018-01-30T17:32:22.774Z,34.73
2018-01-30T17:34:50.330Z,31.70
2018-01-30T17:37:18.207Z,33.33
2018-01-30T17:39:45.737Z,31.00
2018-01-30T17:42:13.279Z,33.07
2018-01-30T17:44:41.121Z,45.83
2018-01-30T17:47:08.655Z,38.30
2018-01-30T17:49:36.196Z,38.40
2018-01-30T17:52:03.787Z,36.20
2018-01-30T17:54:31.338Z,44.80
2018-01-30T17:56:58.859Z,39.60
2018-01-30T17:59:26.396Z,41.50
2018-01-30T18:01:53.961Z,35.63
2018-01-30T18:04:21.545Z,51.90
2018-01-30T18:06:49.080Z,45.00
2018-01-30T18:09:16.641Z,49.40
2018-01-30T18:11:44.224Z,55.57
2018-01-30T18:14:11.788Z,52.83
2018-01-30T18:16:39.303Z,51.77
2018-01-30T18:19:06.852Z,43.43
2018-01-30T18:21:34.412Z,45.70
2018-01-30T18:24:02.015Z,45.23
2018-01-30T18:26:29.573Z,46.93
2018-01-30T18:28:57.093Z,48.07
2018-01-30T18:31:24.636Z,55.70
2018-01-30T18:33:52.142Z,47.10
2018-01-30T18:36:19.712Z,53.13
2018-01-30T18:38:47.229Z,49.37
2018-01-30T18:41:14.764Z,51.30
2018-01-30T18:43:42.299Z,51.53
2018-01-30T18:46:09.878Z,48.23
2018-01-30T18:48:37.423Z,52.70
2018-01-30T18:51:04.968Z,56.00
2018-01-30T18:53:32.591Z,59.47
2018-01-30T18:56:00.132Z,64.57
2018-01-30T18:58:27.703Z,63.87
2018-01-30T19:00:55.280Z,63.63
2018-01-30T19:03:22.870Z,71.63
2018-01-30T19:05:50.491Z,73.23
2018-01-30T19:08:18.099Z,121.67
2018-01-30T19:10:45.620Z,85.47
2018-01-30T19:13:13.182Z,73.50
2018-01-30T19:15:40.755Z,81.20
2018-01-30T19:18:08.331Z,83.33
2018-01-30T19:20:35.905Z,102.13
2018-01-30T19:23:03.808Z,83.43
2018-01-30T19:25:31.350Z,82.13
2018-01-30T19:27:58.899Z,94.00
2018-01-30T19:30:26.527Z,103.30
2018-01-30T19:32:54.086Z,85.17
2018-01-30T19:35:21.649Z,86.67
2018-01-30T19:37:49.192Z,93.63
2018-01-30T19:40:16.781Z,84.90
2018-01-30T19:42:44.320Z,86.10
2018-01-30T19:45:11.872Z,105.03
2018-01-30T19:47:39.587Z,92.17
2018-01-30T19:50:07.177Z,98.40
2018-01-30T19:52:34.713Z,91.17
2018-01-30T19:55:02.265Z,98.60
2018-01-30T19:57:29.816Z,98.73
2018-01-30T19:59:57.398Z,94.40
2018-01-30T20:02:25.015Z,84.97
2018-01-30T20:04:52.544Z,101.13
2018-01-30T20:07:20.158Z,101.13
2018-01-30T20:09:47.733Z,92.30
2018-01-30T20:12:15.273Z,92.43
2018-01-30T20:14:42.882Z,108.50
2018-01-30T20:17:10.514Z,112.87
2018-01-30T20:19:38.143Z,109.77
2018-01-30T20:22:05.771Z,120.47
2018-01-30T20:24:33.342Z,126.37
2018-01-30T20:27:00.906Z,116.37
2018-01-30T20:29:28.693Z,125.73
2018-01-30T20:31:56.280Z,112.73
2018-01-30T20:34:23.837Z,120.30
2018-01-30T20:36:51.432Z,109.50
2018-01-30T20:39:18.978Z,111.67
2018-01-30T20:41:46.560Z,127.43
2018-01-30T20:44:14.076Z,126.93
2018-01-30T20:46:41.610Z,128.37
2018-01-30T20:49:09.213Z,124.77
2018-01-30T20:51:36.753Z,132.17
2018-01-30T20:54:04.412Z,142.23
2018-01-30T20:56:31.983Z,129.90
2018-01-30T20:58:59.513Z,144.67
2018-01-30T21:01:27.144Z,136.90
2018-01-30T21:03:54.718Z,139.53
2018-01-30T21:06:22.300Z,133.33
2018-01-30T21:08:49.823Z,131.23
2018-01-30T21:11:17.351Z,142.93
2018-01-30T21:13:47.827Z,130.57
2018-01-30T21:16:15.447Z,148.97
2018-01-30T21:18:43.059Z,134.37
2018-01-30T21:21:10.590Z,157.00
2018-01-30T21:23:38.139Z,132.60
2018-01-30T21:26:05.731Z,135.10
2018-01-30T21:28:33.299Z,132.83
2018-01-30T21:31:00.845Z,133.23
2018-01-30T21:33:28.473Z,124.43
2018-01-30T21:35:56.042Z,124.53
2018-01-30T21:38:23.572Z,143.00
2018-01-30T21:40:51.133Z,141.87
2018-01-30T21:43:18.655Z,132.13
2018-01-30T21:45:46.275Z,126.80
2018-01-30T21:48:13.841Z,124.10
2018-01-30T21:50:41.367Z,123.90
2018-01-30T21:53:09.125Z,126.10
2018-01-30T21:55:36.660Z,143.93
2018-01-30T21:58:04.203Z,126.27
2018-01-30T22:00:32.149Z,141.20
2018-01-30T22:02:59.680Z,136.43
2018-01-30T22:05:27.385Z,135.77
2018-01-30T22:07:54.973Z,132.13
2018-01-30T22:10:22.819Z,127.13
2018-01-30T22:12:50.390Z,134.20
2018-01-30T22:15:18.243Z,121.80
2018-01-30T22:17:45.898Z,151.97
2018-01-30T22:20:13.474Z,125.10
2018-01-30T22:22:41.028Z,117.80
2018-01-30T22:25:08.567Z,149.17
2018-01-30T22:27:36.135Z,154.83
2018-01-30T22:30:03.671Z,140.57
2018-01-30T22:32:31.317Z,136.47
2018-01-30T22:34:59.030Z,130.90
2018-01-30T22:37:26.607Z,133.07
2018-01-30T22:39:54.168Z,122.70
2018-01-30T22:42:21.705Z,134.87
2018-01-30T22:44:49.316Z,126.67
